Time;durP1;ratioP1;P1;durP2;ratioP2;P2;SDS_P1;SDS_P2;PMS_P1;PMS_P2;Temp;Humidity;BMP_temperature;BMP_pressure;BME280_temperature;BME280_humidity;BME280_pressure;Samples;Min_cycle;Max_cycle;Signal;HPM_P1;HPM_P2
2022/01/11 00:02:04;;;;;;;47.58;23.45;;;;;;;9.90;43.34;100991.50;5059913;28;20056;-78
2022/01/11 00:04:49;;;;;;;30.70;18.13;;;;;;;9.99;42.55;101000.53;5068281;28;20039;-78
2022/01/11 00:07:35;;;;;;;;;;;;;;;10.09;44.73;101001.13;5081492;28;20071;-78
2022/01/11 00:10:27;;;;;;;41.58;23.10;;;;;;;10.00;44.18;101008.41;5080183;28;19916;-78
2022/01/11 00:13:11;;;;;;;37.55;22.73;;;;;;;9.99;45.25;101008.69;5083295;28;20048;-78
2022/01/11 00:15:56;;;;;;;33.95;17.25;;;;;;;10.05;45.35;101008.28;5081131;28;20041;-78
2022/01/11 00:18:41;;;;;;;48.13;23.40;;;;;;;9.93;46.10;101013.44;5078662;28;20044;-78
2022/01/11 00:21:26;;;;;;;38.38;21.75;;;;;;;10.09;47.45;101017.44;5082912;28;20044;-78
2022/01/11 00:24:30;;;;;;;32.35;19.10;;;;;;;10.01;46.72;101020.84;5081116;28;20037;-78
2022/01/11 00:27:16;;;;;;;37.85;21.08;;;;;;;10.12;47.63;101016.00;5083427;28;20036;-78
2022/01/11 00:30:07;;;;;;;45.25;23.73;;;;;;;10.17;47.84;101021.38;5067633;28;20497;-78
2022/01/11 00:32:55;;;;;;;39.05;22.95;;;;;;;10.15;46.54;101018.94;5065446;28;20045;-78
2022/01/11 00:35:46;;;;;;;37.75;18.42;;;;;;;10.37;48.68;101023.63;5084072;28;20409;-78
2022/01/11 00:38:34;;;;;;;35.85;21.73;;;;;;;10.37;47.22;101025.56;5079984;28;20037;-78
2022/01/11 00:41:19;;;;;;;41.28;22.77;;;;;;;10.31;48.05;101026.78;5080102;28;20044;-78
2022/01/11 00:44:05;;;;;;;19.38;9.90;;;;;;;10.46;51.58;101031.88;5067742;28;20496;-78
2022/01/11 00:46:51;;;;;;;33.75;17.08;;;;;;;10.47;49.13;101038.91;5065795;28;20055;-77
2022/01/11 00:49:36;;;;;;;24.23;15.63;;;;;;;10.43;48.55;101035.22;5071600;28;20036;-79
2022/01/11 00:52:20;;;;;;;;;;;;;;;10.53;49.24;101043.13;5064335;28;20045;-78
2022/01/11 00:55:05;;;;;;;36.78;19.27;;;;;;;10.44;47.28;101040.34;5061428;28;19916;-78
2022/01/11 00:57:50;;;;;;;29.65;18.08;;;;;;;10.42;49.66;101047.19;5059009;28;20040;-78
2022/01/11 01:00:38;;;;;;;21.05;12.23;;;;;;;10.46;47.62;101040.84;5062333;28;20044;-78
2022/01/11 01:03:23;;;;;;;35.17;18.50;;;;;;;10.42;44.16;101045.28;5065645;28;20045;-78
2022/01/11 01:06:09;;;;;;;;;;;;;;;10.17;46.35;101045.81;5064361;28;20486;-78
2022/01/11 01:08:53;;;;;;;23.38;13.75;;;;;;;10.34;47.91;101040.56;5078274;28;20288;-78
2022/01/11 01:11:38;;;;;;;;;;;;;;;10.16;46.63;101042.31;5066704;28;20045;-78
2022/01/11 01:14:23;;;;;;;21.75;13.35;;;;;;;10.34;50.09;101056.06;5064027;28;19916;-78
2022/01/11 01:17:09;;;;;;;27.83;15.65;;;;;;;10.38;47.55;101057.88;5067849;28;20049;-78
2022/01/11 01:19:54;;;;;;;20.48;12.50;;;;;;;10.24;45.26;101054.38;5067205;28;20052;-78
2022/01/11 01:22:40;;;;;;;23.23;12.32;;;;;;;10.26;46.84;101054.88;5064429;28;20036;-78
2022/01/11 01:25:25;;;;;;;30.02;18.02;;;;;;;10.36;42.47;101062.03;5067481;28;20045;-78
2022/01/11 01:28:10;;;;;;;23.20;11.98;;;;;;;10.31;46.43;101056.69;5065057;28;20036;-78
2022/01/11 01:31:00;;;;;;;21.05;13.63;;;;;;;10.16;43.42;101066.75;5064971;28;20041;-79
2022/01/11 01:33:45;;;;;;;29.58;17.85;;;;;;;10.04;46.27;101065.66;5062069;28;20044;-78
2022/01/11 01:36:30;;;;;;;25.52;15.80;;;;;;;10.03;42.92;101066.75;5044532;28;20041;-78
2022/01/11 01:39:15;;;;;;;22.80;14.27;;;;;;;9.98;46.68;101067.66;5056408;28;20048;-78
2022/01/11 01:42:05;;;;;;;23.45;11.27;;;;;;;10.19;48.17;101071.59;5045413;28;20413;-77
2022/01/11 01:44:50;;;;;;;28.48;16.20;;;;;;;10.06;45.19;101072.38;5080255;28;20412;-78
2022/01/11 01:47:35;;;;;;;16.15;10.60;;;;;;;10.00;45.23;101070.06;5063856;28;20036;-78
2022/01/11 01:50:20;;;;;;;;;;;;;;;10.05;46.76;101072.69;5077083;28;20048;-78
2022/01/11 01:53:10;;;;;;;22.05;12.98;;;;;;;10.06;48.56;101072.38;5075862;28;20316;-78
2022/01/11 01:55:56;;;;;;;24.40;12.60;;;;;;;10.18;50.99;101077.34;5076652;28;20409;-78
2022/01/11 01:58:42;;;;;;;26.50;12.27;;;;;;;10.13;48.63;101072.78;5061568;28;20040;-78
2022/01/11 02:01:27;;;;;;;25.80;12.95;;;;;;;10.12;45.86;101073.88;5065216;28;20044;-78
2022/01/11 02:04:13;;;;;;;;;;;;;;;10.16;44.74;101069.47;5062814;28;20052;-78
2022/01/11 02:06:57;;;;;;;22.20;14.55;;;;;;;10.09;47.23;101077.22;5062442;28;19912;-78
2022/01/11 02:09:42;;;;;;;18.85;9.40;;;;;;;10.09;47.35;101079.94;5079902;28;20049;-78
2022/01/11 02:12:28;;;;;;;17.55;9.27;;;;;;;10.06;46.11;101077.81;5063120;28;20064;-78
2022/01/11 02:15:13;;;;;;;19.33;11.00;;;;;;;10.05;46.24;101078.94;5041397;28;20040;-78
2022/01/11 02:18:14;;;;;;;14.60;8.80;;;;;;;10.16;44.69;101087.69;5043649;28;20045;-78
2022/01/11 02:21:00;;;;;;;19.10;10.65;;;;;;;10.13;48.54;101091.81;5043597;28;20037;-78
2022/01/11 02:23:51;;;;;;;20.58;11.20;;;;;;;9.97;44.41;101101.34;5053594;28;20036;-77
2022/01/11 02:26:38;;;;;;;23.92;11.80;;;;;;;9.94;46.69;101101.97;5068876;28;20108;-77
2022/01/11 02:29:26;;;;;;;15.35;10.20;;;;;;;9.89;47.49;101093.91;5055283;28;20048;-77
2022/01/11 02:32:11;;;;;;;19.85;10.60;;;;;;;9.99;51.49;101103.78;5066000;28;20051;-78
2022/01/11 02:34:56;;;;;;;;;;;;;;;10.02;50.27;101106.69;5070838;28;20528;-78
2022/01/11 02:37:44;;;;;;;20.67;10.95;;;;;;;10.07;44.74;101093.00;5056269;28;19921;-78
2022/01/11 02:40:33;;;;;;;18.83;10.02;;;;;;;10.07;45.87;101101.16;5047029;28;20505;-78
2022/01/11 02:43:18;;;;;;;29.58;14.40;;;;;;;10.01;47.90;101115.13;5044685;28;20037;-77
2022/01/11 02:46:03;;;;;;;14.93;8.93;;;;;;;9.93;44.24;101113.94;5061494;28;20040;-78
2022/01/11 02:48:53;;;;;;;22.83;12.88;;;;;;;10.04;41.93;101112.63;5055355;28;20405;-78
2022/01/11 02:51:39;;;;;;;19.58;10.98;;;;;;;9.85;45.61;101122.78;5063989;28;20040;-78
2022/01/11 02:54:24;;;;;;;14.32;8.65;;;;;;;9.84;45.21;101129.31;5061804;28;20524;-77
2022/01/11 02:57:15;;;;;;;15.52;8.27;;;;;;;9.86;48.78;101127.91;5064934;28;20044;-78
2022/01/11 03:00:04;;;;;;;15.40;8.90;;;;;;;9.85;49.51;101126.28;5064849;28;20055;-78
2022/01/11 03:02:50;;;;;;;11.77;7.45;;;;;;;9.98;53.02;101124.72;5062009;28;20051;-78
2022/01/11 03:06:09;;;;;;;15.75;8.75;;;;;;;10.12;52.98;101136.38;5065708;28;20056;-79
2022/01/11 03:08:57;;;;;;;17.83;9.35;;;;;;;10.06;49.35;101137.56;5057412;28;20040;-78
2022/01/11 03:11:42;;;;;;;15.98;7.65;;;;;;;10.05;48.55;101124.31;5066362;28;20045;-78
2022/01/11 03:14:27;;;;;;;9.68;5.90;;;;;;;9.85;44.88;101130.94;5064631;28;20047;-77
2022/01/11 03:17:12;;;;;;;8.60;5.55;;;;;;;9.93;45.75;101122.09;5061339;28;20043;-78
2022/01/11 03:19:57;;;;;;;9.85;5.47;;;;;;;9.98;49.37;101141.00;5076756;28;20405;-77
2022/01/11 03:22:42;;;;;;;14.05;6.45;;;;;;;10.09;52.71;101138.91;5080384;28;20063;-78
2022/01/11 03:25:29;;;;;;;11.25;6.32;;;;;;;9.90;45.14;101144.44;5066201;28;20040;-78
2022/01/11 03:28:14;;;;;;;11.10;5.90;;;;;;;9.93;45.30;101130.22;5064412;28;20052;-77
2022/01/11 03:31:00;;;;;;;14.93;6.47;;;;;;;9.94;49.68;101134.56;5068907;28;20047;-78
2022/01/11 03:33:50;;;;;;;14.85;8.38;;;;;;;9.80;43.46;101122.88;5066689;28;20050;-77
2022/01/11 03:36:35;;;;;;;10.50;6.43;;;;;;;9.83;43.10;101144.00;5063366;28;20055;-77
2022/01/11 03:39:19;;;;;;;11.95;6.70;;;;;;;9.88;48.53;101143.91;5067595;28;20055;-78
2022/01/11 03:42:05;;;;;;;;;;;;;;;9.83;48.84;101149.44;5066537;28;20051;-78
2022/01/11 03:44:50;;;;;;;9.63;5.40;;;;;;;9.81;44.58;101151.63;5078491;28;19913;-78
2022/01/11 03:47:36;;;;;;;11.55;6.60;;;;;;;9.83;47.49;101149.44;5067388;28;20054;-78
2022/01/11 03:50:21;;;;;;;11.43;6.40;;;;;;;9.85;45.87;101147.25;5066751;28;20048;-78
2022/01/11 03:53:12;;;;;;;11.30;6.53;;;;;;;9.91;41.32;101148.72;5063925;28;20055;-77
2022/01/11 03:56:21;;;;;;;16.55;7.20;;;;;;;9.77;42.68;101156.06;5067293;28;20056;-77
2022/01/11 03:59:07;;;;;;;12.48;5.93;;;;;;;9.74;46.76;101153.94;5044267;28;20055;-78
2022/01/11 04:01:54;;;;;;;8.10;5.07;;;;;;;9.67;47.60;101165.19;5049754;28;20059;-78
2022/01/11 04:04:39;;;;;;;7.28;4.57;;;;;;;9.81;51.82;101162.50;5046721;28;20056;-77
2022/01/11 04:07:28;;;;;;;11.63;5.97;;;;;;;9.86;46.26;101170.56;5051847;28;20039;-78
2022/01/11 04:10:13;;;;;;;13.02;6.18;;;;;;;9.79;46.52;101178.31;5069738;28;20433;-77
2022/01/11 04:12:58;;;;;;;10.45;5.40;;;;;;;9.74;48.12;101178.41;5067355;28;20047;-77
2022/01/11 04:15:43;;;;;;;6.55;4.30;;;;;;;9.83;51.55;101171.16;5065314;28;20047;-78
2022/01/11 04:18:29;;;;;;;9.23;5.30;;;;;;;9.80;50.06;101177.22;5064051;28;20524;-78
2022/01/11 04:21:14;;;;;;;5.07;3.38;;;;;;;9.81;50.75;101173.38;5065733;28;20044;-78
2022/01/11 04:24:03;;;;;;;9.18;5.13;;;;;;;9.71;43.92;101166.19;5064013;28;20055;-77
2022/01/11 04:26:48;;;;;;;10.63;5.47;;;;;;;9.76;49.26;101184.31;5067340;28;20047;-78
2022/01/11 04:29:33;;;;;;;6.35;3.80;;;;;;;9.65;48.33;101175.53;5064808;28;20055;-78
2022/01/11 04:32:17;;;;;;;10.13;4.20;;;;;;;9.60;47.69;101188.41;5078090;28;20051;-78
2022/01/11 04:35:03;;;;;;;7.32;4.28;;;;;;;9.74;50.77;101194.69;5082344;28;20056;-78
2022/01/11 04:37:48;;;;;;;12.70;5.43;;;;;;;9.72;44.92;101196.88;5081602;28;20409;-77
2022/01/11 04:40:33;;;;;;;8.02;3.92;;;;;;;9.59;46.61;101190.31;5064211;28;20055;-78
2022/01/11 04:43:18;;;;;;;;;;;;;;;9.68;50.77;101198.59;5068796;28;20083;-77
2022/01/11 04:46:05;;;;;;;9.77;4.82;;;;;;;9.57;44.21;101195.22;5063843;28;19920;-78
2022/01/11 04:48:50;;;;;;;7.05;3.47;;;;;;;9.53;47.03;101196.13;5059154;28;20052;-78
2022/01/11 04:51:35;;;;;;;8.43;3.83;;;;;;;9.58;46.32;101202.28;5055123;28;20421;-78
2022/01/11 04:54:21;;;;;;;9.95;4.63;;;;;;;9.55;49.15;101208.28;5057921;28;20043;-78
2022/01/11 04:57:08;;;;;;;16.92;7.68;;;;;;;9.48;47.90;101207.88;5063298;28;20052;-77
2022/01/11 04:59:53;;;;;;;13.80;7.63;;;;;;;9.45;47.28;101200.31;5077428;28;20059;-78
2022/01/11 05:02:38;;;;;;;10.65;4.55;;;;;;;9.57;50.72;101208.00;5059685;28;20047;-77
2022/01/11 05:05:23;;;;;;;9.82;5.75;;;;;;;9.53;49.33;101215.94;5064583;28;20043;-78
2022/01/11 05:08:11;;;;;;;13.57;7.15;;;;;;;9.38;45.97;101219.69;5064466;28;20055;-78
2022/01/11 05:10:56;;;;;;;15.55;6.60;;;;;;;9.39;48.47;101226.75;5076119;28;20048;-77
2022/01/11 05:13:42;;;;;;;12.40;5.97;;;;;;;9.36;48.04;101219.16;5058501;28;20055;-77
2022/01/11 05:16:49;;;;;;;11.90;5.63;;;;;;;9.38;43.20;101218.88;5078307;28;20043;-78
2022/01/11 05:19:34;;;;;;;10.13;5.65;;;;;;;9.28;45.31;101219.03;5064545;28;20071;-78
2022/01/11 05:22:19;;;;;;;12.60;5.07;;;;;;;9.37;47.76;101225.41;5063317;28;20409;-78
2022/01/11 05:25:06;;;;;;;10.63;5.47;;;;;;;9.29;45.08;101223.38;5066799;28;20051;-78
2022/01/11 05:27:51;;;;;;;11.88;6.60;;;;;;;9.27;42.49;101228.28;5064291;28;20043;-77
2022/01/11 05:30:38;;;;;;;18.48;6.68;;;;;;;9.26;45.14;101232.88;5060892;28;20051;-78
2022/01/11 05:33:23;;;;;;;9.10;4.72;;;;;;;9.24;47.29;101226.97;5058744;28;20527;-77
2022/01/11 05:36:08;;;;;;;14.27;5.28;;;;;;;9.32;48.30;101228.19;5067383;28;20039;-77
2022/01/11 05:38:54;;;;;;;12.45;4.35;;;;;;;9.27;50.04;101229.09;5057688;28;20051;-77
2022/01/11 05:41:39;;;;;;;10.70;5.07;;;;;;;9.32;50.82;101231.72;5084652;28;20408;-77
2022/01/11 05:44:24;;;;;;;7.72;3.50;;;;;;;9.34;51.66;101240.38;5068914;28;20062;-78
2022/01/11 05:47:09;;;;;;;12.10;3.58;;;;;;;9.37;51.81;101247.94;5062520;28;20047;-78
2022/01/11 05:49:55;;;;;;;8.40;5.28;;;;;;;9.33;50.69;101237.97;5067545;28;20102;-78
2022/01/11 05:52:40;;;;;;;15.05;7.03;;;;;;;9.22;45.37;101242.72;5069876;28;20055;-77
2022/01/11 05:55:25;;;;;;;12.13;5.55;;;;;;;9.22;48.06;101247.34;5075360;28;20416;-77
2022/01/11 05:58:12;;;;;;;34.95;14.35;;;;;;;9.22;46.98;101252.78;5082366;28;20046;-79
2022/01/11 06:00:57;;;;;;;17.00;8.32;;;;;;;9.14;47.32;101248.00;5096427;28;20511;-78
2022/01/11 06:03:42;;;;;;;21.90;8.35;;;;;;;9.14;45.75;101254.25;5077121;28;20051;-78
2022/01/11 06:06:27;;;;;;;13.65;6.55;;;;;;;9.14;43.54;101254.25;5078486;28;20030;-77
2022/01/11 06:09:12;;;;;;;;;;;;;;;9.16;46.00;101260.16;5082582;28;20062;-77
2022/01/11 06:11:58;;;;;;;11.93;6.50;;;;;;;9.08;46.00;101257.31;5080752;28;19913;-77
2022/01/11 06:14:44;;;;;;;17.15;7.57;;;;;;;9.17;44.79;101264.50;5078516;28;20058;-77
2022/01/11 06:17:29;;;;;;;12.63;5.22;;;;;;;9.04;43.47;101267.91;5090895;28;20047;-77
2022/01/11 06:20:14;;;;;;;;;;;;;;;8.82;42.99;101267.66;5063627;28;20046;-77
2022/01/11 06:23:00;;;;;;;15.80;6.38;;;;;;;8.73;42.49;101270.22;5076265;28;19913;-78
2022/01/11 06:25:45;;;;;;;11.18;6.20;;;;;;;8.36;42.60;101270.09;5079877;28;20035;-78
2022/01/11 06:28:30;;;;;;;;;;;;;;;8.14;42.60;101278.66;5076174;28;20043;-77
2022/01/11 06:31:15;;;;;;;16.15;7.55;;;;;;;8.26;41.97;101279.09;5069208;28;20369;-77
2022/01/11 06:34:00;;;;;;;13.02;5.55;;;;;;;8.56;40.33;101286.13;5061429;28;20464;-78
2022/01/11 06:36:46;;;;;;;23.92;8.07;;;;;;;8.49;39.63;101299.19;5075796;28;20039;-77
2022/01/11 06:39:31;;;;;;;22.15;7.75;;;;;;;8.44;39.94;101307.38;5066316;28;20056;-78
2022/01/11 06:42:16;;;;;;;12.73;5.28;;;;;;;8.38;41.82;101312.03;5079740;28;20047;-78
2022/01/11 06:45:01;;;;;;;14.13;6.93;;;;;;;8.12;40.59;101316.06;5071408;28;20056;-78
2022/01/11 06:47:46;;;;;;;13.93;5.57;;;;;;;7.84;41.14;101320.34;5063200;28;20044;-78
2022/01/11 06:50:32;;;;;;;26.60;6.72;;;;;;;7.73;40.89;101322.31;5072931;28;20055;-78
2022/01/11 06:53:17;;;;;;;18.10;5.40;;;;;;;7.69;41.28;101323.97;5073992;28;20048;-77
2022/01/11 06:56:06;;;;;;;16.08;6.25;;;;;;;7.64;40.85;101324.00;5074270;28;20056;-78
2022/01/11 06:58:51;;;;;;;14.82;6.82;;;;;;;7.44;41.66;101334.13;5073853;28;20047;-78
2022/01/11 07:01:38;;;;;;;20.63;5.82;;;;;;;7.42;41.85;101339.81;5076642;28;20052;-78
2022/01/11 07:04:32;;;;;;;17.83;6.63;;;;;;;7.42;41.79;101349.81;5074898;28;20575;-78
2022/01/11 07:07:17;;;;;;;16.50;6.35;;;;;;;7.37;42.33;101353.34;5093907;28;20051;-78
2022/01/11 07:10:03;;;;;;;20.92;6.00;;;;;;;7.32;42.50;101351.50;5075899;28;20047;-78
2022/01/11 07:12:49;;;;;;;19.33;6.20;;;;;;;7.13;42.80;101363.22;5073503;28;20059;-78
2022/01/11 07:15:34;;;;;;;19.65;4.55;;;;;;;7.21;44.71;101370.75;5078234;28;20052;-78
2022/01/11 07:18:21;;;;;;;31.27;8.05;;;;;;;7.06;43.49;101373.53;5074126;28;20516;-78
2022/01/11 07:21:06;;;;;;;15.07;4.03;;;;;;;7.13;44.12;101380.25;5074719;28;20047;-78
2022/01/11 07:23:52;;;;;;;30.08;7.32;;;;;;;7.18;43.36;101382.94;5076033;28;20044;-77
2022/01/11 07:26:37;;;;;;;32.00;11.25;;;;;;;7.14;43.46;101379.16;5076096;28;20039;-78
2022/01/11 07:29:22;;;;;;;47.90;19.88;;;;;;;7.02;43.95;101392.16;5088116;28;20242;-78
2022/01/11 07:32:07;;;;;;;21.92;12.35;;;;;;;7.06;43.35;101395.16;5074750;28;20036;-78
2022/01/11 07:34:52;;;;;;;37.05;14.73;;;;;;;7.07;44.39;101405.69;5073853;28;20051;-77
2022/01/11 07:37:37;;;;;;;40.55;15.73;;;;;;;7.06;43.98;101405.97;5069704;28;20048;-78
2022/01/11 07:40:26;;;;;;;32.40;12.40;;;;;;;7.22;42.79;101404.81;5075164;28;20044;-78
2022/01/11 07:43:15;;;;;;;23.73;8.10;;;;;;;7.31;41.90;101409.38;5074185;28;20056;-78
2022/01/11 07:46:11;;;;;;;23.50;7.63;;;;;;;7.31;41.97;101411.31;5072835;28;20054;-78
2022/01/11 07:49:03;;;;;;;30.13;10.40;;;;;;;7.28;42.41;101409.13;5089046;28;20508;-77
2022/01/11 07:51:48;;;;;;;41.45;9.88;;;;;;;7.09;44.86;101416.22;5072511;28;20059;-77
2022/01/11 07:54:33;;;;;;;16.67;6.20;;;;;;;7.15;45.66;101417.84;5073516;28;20063;-78
2022/01/11 07:57:21;;;;;;;26.38;5.93;;;;;;;7.52;52.94;101429.06;5068323;28;20048;-78
2022/01/11 08:00:07;;;;;;;11.45;3.50;;;;;;;7.92;57.85;101432.66;5071722;28;20063;-78
2022/01/11 08:03:01;;;;;;;11.65;4.20;;;;;;;8.08;62.23;101439.59;5081087;28;20577;-78
2022/01/11 08:06:05;;;;;;;15.43;5.45;;;;;;;8.09;60.32;101436.59;5076912;28;20274;-78
2022/01/11 08:08:51;;;;;;;12.50;5.25;;;;;;;8.19;61.17;101443.84;5067299;28;20048;-78
2022/01/11 08:11:36;;;;;;;17.25;8.05;;;;;;;8.17;57.24;101446.06;5062279;28;20412;-78
2022/01/11 08:14:23;;;;;;;21.60;7.55;;;;;;;8.08;52.51;101447.72;5071681;28;20071;-78
2022/01/11 08:17:08;;;;;;;29.13;6.95;;;;;;;8.12;54.68;101459.63;5071419;28;20047;-78
2022/01/11 08:19:53;;;;;;;;;;;;;;;8.18;56.11;101452.28;5070522;28;20048;-78
2022/01/11 08:22:39;;;;;;;9.32;4.50;;;;;;;8.28;59.48;101466.53;5064566;28;19917;-77
2022/01/11 08:25:25;;;;;;;23.77;12.30;;;;;;;8.15;53.38;101462.56;5061283;28;20409;-78
2022/01/11 08:28:09;;;;;;;;;;;;;;;8.22;51.87;101469.59;5043022;28;20045;-77
2022/01/11 08:30:57;;;;;;;17.52;4.40;;;;;;;8.33;59.13;101473.88;5066656;28;19912;-77
2022/01/11 08:33:45;;;;;;;11.93;5.32;;;;;;;8.30;57.92;101472.53;5063477;28;20056;-78
2022/01/11 08:36:30;;;;;;;11.00;4.35;;;;;;;8.43;61.41;101485.44;5065568;28;20106;-78
2022/01/11 08:39:16;;;;;;;6.95;3.42;;;;;;;8.55;63.51;101494.03;5073409;28;20052;-78
2022/01/11 08:42:03;;;;;;;19.33;6.75;;;;;;;8.44;59.30;101497.91;5074213;28;20048;-78
2022/01/11 08:44:49;;;;;;;11.18;4.15;;;;;;;8.64;63.35;101499.66;5067241;28;20154;-78
2022/01/11 08:47:38;;;;;;;18.48;5.53;;;;;;;8.77;65.75;101503.63;5067815;28;20044;-78
2022/01/11 08:50:23;;;;;;;7.20;3.60;;;;;;;8.87;66.22;101503.56;5066447;28;20036;-78
2022/01/11 08:53:08;;;;;;;13.68;4.10;;;;;;;8.91;67.20;101513.53;5067778;28;20055;-78
2022/01/11 08:55:56;;;;;;;8.13;5.22;;;;;;;8.89;61.00;101514.91;5070782;28;20048;-78
2022/01/11 08:58:43;;;;;;;14.63;5.25;;;;;;;8.72;53.51;101520.75;5067024;28;20075;-78
2022/01/11 09:01:31;;;;;;;20.20;6.10;;;;;;;8.63;50.44;101527.88;5060681;28;20535;-78
2022/01/11 09:04:19;;;;;;;22.88;5.72;;;;;;;8.58;49.22;101523.28;5067780;28;20050;-77
2022/01/11 09:07:24;;;;;;;10.73;5.22;;;;;;;8.50;47.70;101521.19;5058898;28;20055;-78
2022/01/11 09:10:13;;;;;;;11.75;5.35;;;;;;;8.50;47.05;101525.78;5071977;28;20063;-78
2022/01/11 09:12:59;;;;;;;11.50;5.60;;;;;;;8.44;45.88;101525.00;5069979;28;20047;-79
2022/01/11 09:15:45;;;;;;;10.43;5.40;;;;;;;8.42;45.98;101521.78;5062002;28;20531;-78
2022/01/11 09:18:30;;;;;;;6.78;3.70;;;;;;;8.38;45.11;101530.75;5074183;28;20417;-79
2022/01/11 09:21:16;;;;;;;11.48;4.70;;;;;;;8.40;44.39;101531.28;5070148;28;20116;-78
2022/01/11 09:24:02;;;;;;;10.93;4.75;;;;;;;8.32;43.18;101529.16;5067482;28;20044;-79
2022/01/11 09:26:55;;;;;;;8.73;3.90;;;;;;;8.65;41.19;101535.72;5072288;28;20060;-78
2022/01/11 09:29:43;;;;;;;6.28;3.85;;;;;;;8.68;40.20;101540.59;5065485;28;20043;-79
2022/01/11 09:32:30;;;;;;;7.70;3.83;;;;;;;8.72;39.50;101537.03;5067753;28;20052;-78
2022/01/11 09:35:16;;;;;;;8.60;3.88;;;;;;;8.70;38.91;101546.53;5071885;28;20052;-78
2022/01/11 09:38:04;;;;;;;9.32;4.22;;;;;;;8.71;38.50;101546.25;5071221;28;20051;-78
2022/01/11 09:40:52;;;;;;;6.32;3.10;;;;;;;8.66;37.69;101543.56;5067686;28;20051;-79
2022/01/11 09:43:38;;;;;;;6.65;4.13;;;;;;;8.63;37.35;101541.44;5072071;28;20059;-79
2022/01/11 09:46:28;;;;;;;13.35;3.80;;;;;;;8.46;38.09;101541.81;5069708;28;20527;-78
2022/01/11 09:49:13;;;;;;;7.78;4.15;;;;;;;8.48;38.23;101541.53;5064093;28;20051;-78
2022/01/11 09:52:01;;;;;;;7.45;6.38;;;;;;;8.55;38.04;101547.44;5070941;28;20047;-78
2022/01/11 09:54:48;;;;;;;9.55;4.20;;;;;;;8.57;37.58;101546.09;5069112;28;20052;-79
2022/01/11 09:57:37;;;;;;;8.25;4.07;;;;;;;8.58;37.81;101544.97;5061004;28;20052;-79
2022/01/11 10:00:41;;;;;;;6.65;4.53;;;;;;;8.66;37.90;101550.91;5084765;28;20047;-78
2022/01/11 10:04:01;;;;;;;2.97;2.45;;;;;;;8.70;38.03;101549.22;5084768;28;20040;-79
2022/01/11 10:07:10;;;;;;;7.35;3.38;;;;;;;8.68;37.83;101546.81;5069930;28;20051;-78
2022/01/11 10:09:57;;;;;;;5.65;3.30;;;;;;;8.65;38.67;101552.78;5077905;28;20047;-79
2022/01/11 10:12:46;;;;;;;5.38;3.63;;;;;;;8.70;38.69;101546.53;5072488;28;20115;-79
2022/01/11 10:15:40;;;;;;;7.63;4.25;;;;;;;8.71;39.23;101551.66;5070378;28;20055;-79
2022/01/11 10:18:35;;;;;;;5.75;3.70;;;;;;;8.74;39.75;101544.84;5075013;28;20098;-78
2022/01/11 10:21:50;;;;;;;6.43;3.72;;;;;;;8.77;39.82;101549.75;5069616;28;20051;-80
2022/01/11 10:24:43;;;;;;;7.85;4.13;;;;;;;8.78;39.88;101543.22;5069931;28;20051;-79
2022/01/11 10:27:35;;;;;;;8.05;4.00;;;;;;;8.78;40.44;101545.94;5061643;28;20047;-77
2022/01/11 10:30:23;;;;;;;9.65;4.30;;;;;;;8.80;43.09;101555.41;5068973;28;20047;-77
2022/01/11 10:33:17;;;;;;;5.97;3.20;;;;;;;8.86;44.19;101558.88;5059816;28;20061;-77
2022/01/11 10:36:05;;;;;;;6.57;3.83;;;;;;;8.91;42.73;101553.41;5057514;28;20055;-77
2022/01/11 10:39:28;;;;;;;5.50;3.58;;;;;;;8.93;42.57;101553.97;5058167;28;20429;-77
2022/01/11 10:42:32;;;;;;;6.20;3.70;;;;;;;8.93;43.40;101549.34;5058931;28;20051;-77
2022/01/11 10:45:28;;;;;;;6.10;3.53;;;;;;;8.90;44.39;101554.50;5061485;28;20039;-77
2022/01/11 10:48:19;;;;;;;6.00;3.17;;;;;;;8.93;45.05;101537.69;5053619;28;20044;-77
2022/01/11 10:51:04;;;;;;;9.00;3.40;;;;;;;9.04;46.25;101532.97;5057620;28;20529;-78
2022/01/11 10:53:54;;;;;;;16.45;3.60;;;;;;;9.02;44.85;101533.25;5061032;28;20690;-78
2022/01/11 10:56:43;;;;;;;13.43;3.45;;;;;;;9.09;45.26;101531.03;5032288;28;20041;-77
2022/01/11 10:59:28;;;;;;;16.80;3.00;;;;;;;9.18;45.04;101531.22;5058260;28;20051;-77
2022/01/11 11:02:25;;;;;;;8.10;2.20;;;;;;;9.21;46.49;101526.03;5057197;28;20051;-77
2022/01/11 11:05:19;;;;;;;7.25;3.05;;;;;;;9.34;47.51;101524.56;5057616;28;20052;-77
2022/01/11 11:08:14;;;;;;;15.85;4.05;;;;;;;9.33;47.29;101523.75;5046571;28;20056;-78
2022/01/11 11:11:18;;;;;;;9.80;2.40;;;;;;;9.37;47.32;101526.69;5072712;28;20048;-78
2022/01/11 11:14:08;;;;;;;11.98;4.25;;;;;;;9.46;47.57;101522.25;5063719;28;20124;-77
2022/01/11 11:16:54;;;;;;;9.23;3.25;;;;;;;9.45;46.40;101515.19;5063334;28;20420;-77
2022/01/11 11:20:03;;;;;;;17.05;3.50;;;;;;;9.59;45.93;101512.63;5058365;28;20059;-77
2022/01/11 11:22:51;;;;;;;6.00;2.90;;;;;;;9.87;43.26;101517.97;5078703;28;20052;-80
2022/01/11 11:25:35;;;;;;;5.68;2.83;;;;;;;9.57;42.20;101520.22;5072083;28;20043;-80
2022/01/11 11:28:21;;;;;;;4.43;2.28;;;;;;;9.51;41.08;101514.03;5075864;28;20044;-80
2022/01/11 11:31:06;;;;;;;6.72;2.67;;;;;;;9.64;41.99;101518.00;5079292;28;20052;-79
2022/01/11 11:33:51;;;;;;;5.07;2.05;;;;;;;9.55;39.86;101517.00;5076897;28;20059;-80
2022/01/11 11:36:38;;;;;;;9.27;3.25;;;;;;;9.74;40.38;101515.97;5075047;28;20047;-80
2022/01/11 11:39:24;;;;;;;11.68;2.97;;;;;;;9.91;40.13;101503.78;5079466;28;20060;-80
2022/01/11 11:42:15;;;;;;;6.20;2.90;;;;;;;10.00;39.73;101502.06;5078226;28;20412;-80
2022/01/11 11:45:13;;;;;;;4.43;2.72;;;;;;;9.93;38.89;101494.25;5068584;28;20048;-80
2022/01/11 11:48:08;;;;;;;5.93;2.80;;;;;;;9.83;38.94;101497.09;5081969;28;20035;-80
2022/01/11 11:51:01;;;;;;;6.47;2.20;;;;;;;9.82;38.62;101498.19;5079917;28;20055;-80
2022/01/11 11:53:47;;;;;;;10.65;2.90;;;;;;;9.74;39.62;101496.16;5084238;28;20059;-80
2022/01/11 11:56:33;;;;;;;5.10;2.70;;;;;;;10.02;39.62;101489.78;5080628;28;20048;-80
2022/01/11 11:59:18;;;;;;;8.88;4.07;;;;;;;10.08;39.68;101499.50;5079682;28;20052;-79
2022/01/11 12:02:03;;;;;;;2.53;1.98;;;;;;;10.17;40.28;101483.38;5084981;28;20047;-79
2022/01/11 12:04:53;;;;;;;4.38;2.22;;;;;;;10.09;40.86;101486.72;5065135;28;20052;-80
2022/01/11 12:07:41;;;;;;;10.90;3.42;;;;;;;9.93;40.47;101486.13;5074567;28;20051;-80
2022/01/11 12:10:53;;;;;;;7.18;3.40;;;;;;;10.22;39.01;101486.81;5073847;28;20113;-81
2022/01/11 12:14:07;;;;;;;17.27;3.70;;;;;;;10.67;40.02;101479.88;5071452;28;20055;-82
2022/01/11 12:16:52;;;;;;;7.25;2.80;;;;;;;10.69;39.90;101472.22;5071364;28;20043;-81
2022/01/11 12:19:44;;;;;;;6.70;3.17;;;;;;;10.72;40.60;101468.09;5075147;28;20059;-83
2022/01/11 12:22:35;;;;;;;7.07;3.13;;;;;;;10.97;40.18;101469.59;5063250;28;20047;-81
2022/01/11 12:25:33;;;;;;;10.57;3.25;;;;;;;11.47;41.58;101467.84;5082458;28;20051;-83
2022/01/11 12:28:20;;;;;;;4.90;2.85;;;;;;;11.28;39.12;101472.53;5075559;28;20409;-80
2022/01/11 12:31:26;;;;;;;6.40;3.08;;;;;;;11.17;41.31;101460.25;5081543;28;20059;-80
2022/01/11 12:34:13;;;;;;;4.80;2.47;;;;;;;11.81;41.72;101462.81;5077966;28;20036;-79
2022/01/11 12:37:03;;;;;;;7.50;2.85;;;;;;;11.18;40.07;101459.13;5077803;28;20048;-79
2022/01/11 12:40:23;;;;;;;8.55;3.90;;;;;;;10.71;39.29;101459.16;5085040;28;20040;-81
2022/01/11 12:43:16;;;;;;;9.35;3.55;;;;;;;10.80;39.57;101442.94;5061480;28;20063;-80
2022/01/11 12:46:20;;;;;;;7.00;2.72;;;;;;;10.90;38.26;101448.22;5084423;28;20043;-80
2022/01/11 12:49:06;;;;;;;4.43;2.80;;;;;;;10.68;38.76;101443.41;5075693;28;20047;-78
2022/01/11 12:51:58;;;;;;;76.20;47.38;;;;;;;10.75;39.20;101447.66;5071603;28;20067;-78
2022/01/11 12:54:49;;;;;;;11.35;6.63;;;;;;;10.71;37.59;101442.84;5073761;28;20036;-78
2022/01/11 12:57:34;;;;;;;8.10;3.72;;;;;;;10.65;37.13;101440.50;5072809;28;20032;-77
2022/01/11 13:00:20;;;;;;;8.40;3.70;;;;;;;10.70;36.95;101432.25;5075356;28;20055;-77
2022/01/11 13:03:05;;;;;;;8.00;4.40;;;;;;;10.89;36.16;101427.53;5074212;28;20523;-77
2022/01/11 13:05:54;;;;;;;30.95;7.60;;;;;;;11.01;37.28;101433.31;5075861;28;20055;-78